Terminal Aerodrome Forecast
Issued by NWS Nashville, TN

Home | Current Version | Previous Version | Text Only | Print | Product List | Glossary On
Versions: 1 2 3 4 5 6 7 8 9 10 11 12 13 14 15 16 17 18 19 20 21 22
941
FTUS44 KOHX 231120
TAFCSV
TAF
KCSV 231120Z 2312/2412 15012G18KT 5SM -SHRA SCT015 OVC020
      TEMPO 2312/2315 2SM SHRA BKN015
     FM231600 26007G20KT 6SM -DZ OVC025
     FM240000 26006KT P6SM BKN040=

USA.gov is the U.S. government's official web portal to all federal, state and local government web resources and services.